Aérodrome :
LOGIN :

S'inscrire | Disclaimer

   EN    FR    IT 

 










Légende :    VFR   VFR Marginal   IFR   IFR Intensif   IFR Très Intensif
Visi : 
Plafond : 
>= 8 km
>= 3000ft
5 à 8 km
1000 à 3000 ft
1500m à 5 km
500 à 1000 ft
800 à 1500m
200 à 500 ft
< 800m
< 200 ft
Symboles :   Orages  Brouillard  Fortes neiges  Fortes précipitations  Vent > 20 kt
SIGMETs :   Divers  Orages  Givrage  Turbulence  Onde Orograph.  Cendres Volcan.







- Altitude de l'aérodrome : 18 ft
- Code IATA : AJA
- Voir les cartes d'approche


LFKJ - Ajaccio

DERNIER METAR :
  • 162100Z AUTO 06004KT 8000 NSC 16/15 Q1016 NOSIG

METARs EXPIRÉS :
  • 162030Z AUTO 04004KT CAVOK 17/15 Q1016 NOSIG
  • 162000Z AUTO 05004KT CAVOK 17/15 Q1016 NOSIG
  • 161930Z AUTO 05005KT CAVOK 17/15 Q1016 NOSIG
  • 161900Z AUTO 05004KT CAVOK 18/16 Q1016 NOSIG
  • 161830Z AUTO 04004KT CAVOK 18/15 Q1016 NOSIG

TAF TAF LFKJ
Valide du 16 à 21h jusqu'au 17 à 21h UTC


162000Z 1621/1721 05005KT 9999 FEW035 SCT070 BKN090
TEMPO 1706/1715 RA FEW030CB BKN080
ATIS : +33 4 95 23 59 85
Pas de NOTAMs connus pour ce terrain.



MET'MAP, la Météo Aéronautique d'un coup d'oeil ! - Copyright ORBIFLY Décembre 2007 - Disclaimer

ORBIFLY MET'MAP TEAM :

Programmation & Développement : Alexandra Zaïnal
Conception & Développement : Baudouin d'Aumeries
Co-Programmation & Développement : Marc-Olivier Méhu
Soutien technique & logistique : Manuel Goepfert

Contact : metmap@orbifly.com




SOURCES & CREDITS :

   NOAA